createdAt,value
2023-05-11T00:01:50.024Z,9.50
2023-05-11T00:04:17.164Z,9.60
2023-05-11T00:06:43.973Z,9.60
2023-05-11T00:09:11.599Z,9.50
2023-05-11T00:11:38.508Z,9.60
2023-05-11T00:14:05.416Z,9.60
2023-05-11T00:16:32.268Z,9.50
2023-05-11T00:18:59.232Z,9.50
2023-05-11T00:21:26.467Z,9.50
2023-05-11T00:23:53.323Z,9.50
2023-05-11T00:26:20.159Z,9.50
2023-05-11T00:28:47.084Z,9.50
2023-05-11T00:31:13.985Z,9.50
2023-05-11T00:33:41.004Z,9.50
2023-05-11T00:36:08.994Z,9.50
2023-05-11T00:38:36.918Z,9.50
2023-05-11T00:41:03.730Z,9.50
2023-05-11T00:43:30.544Z,9.40
2023-05-11T00:45:57.438Z,9.50
2023-05-11T00:48:24.789Z,9.40
2023-05-11T00:50:51.808Z,9.40
2023-05-11T00:53:18.811Z,9.40
2023-05-11T00:55:45.887Z,9.30
2023-05-11T00:58:12.791Z,9.30
2023-05-11T01:00:39.789Z,9.30
2023-05-11T01:03:07.412Z,9.30
2023-05-11T01:06:09.357Z,9.30
2023-05-11T01:08:51.216Z,9.30
2023-05-11T01:11:40.713Z,9.20
2023-05-11T01:14:23.304Z,9.20
2023-05-11T01:16:57.186Z,9.20
2023-05-11T01:19:39.770Z,9.30
2023-05-11T01:22:29.026Z,9.20
2023-05-11T01:25:04.734Z,9.20
2023-05-11T01:28:09.768Z,9.20
2023-05-11T01:30:55.162Z,9.10
2023-05-11T01:33:34.241Z,9.10
2023-05-11T01:36:07.569Z,9.20
2023-05-11T01:38:37.658Z,9.20
2023-05-11T01:41:22.445Z,9.10
2023-05-11T01:43:55.851Z,9.20
2023-05-11T01:46:26.979Z,9.20
2023-05-11T01:48:57.212Z,9.10
2023-05-11T01:51:27.956Z,9.20
2023-05-11T01:53:56.640Z,9.10
2023-05-11T01:56:25.140Z,9.10
2023-05-11T01:58:54.180Z,9.20
2023-05-11T02:01:21.804Z,9.20
2023-05-11T02:03:50.164Z,9.10
2023-05-11T02:06:19.262Z,9.20
2023-05-11T02:08:48.289Z,9.20
2023-05-11T02:11:16.239Z,9.20
2023-05-11T02:13:46.921Z,9.10
2023-05-11T02:16:16.512Z,9.10
2023-05-11T02:18:43.966Z,9.10
2023-05-11T02:21:12.045Z,9.00
2023-05-11T02:23:40.083Z,9.00
2023-05-11T02:26:08.602Z,9.00
2023-05-11T02:28:36.146Z,9.00
2023-05-11T02:31:09.960Z,9.00
2023-05-11T02:33:43.083Z,8.90
2023-05-11T02:36:14.580Z,8.90
2023-05-11T02:38:43.463Z,8.90
2023-05-11T02:41:14.052Z,8.90
2023-05-11T02:43:49.280Z,8.90
2023-05-11T02:46:20.305Z,8.90
2023-05-11T02:48:55.270Z,8.90
2023-05-11T02:51:39.582Z,8.80
2023-05-11T02:54:10.876Z,8.80
2023-05-11T02:56:39.176Z,8.90
2023-05-11T02:59:06.356Z,8.90
2023-05-11T03:01:34.121Z,8.80
2023-05-11T03:04:04.806Z,8.80
2023-05-11T03:06:33.300Z,8.80
2023-05-11T03:09:01.821Z,8.80
2023-05-11T03:11:29.180Z,8.80
2023-05-11T03:13:56.581Z,8.80
2023-05-11T03:16:24.571Z,8.80
2023-05-11T03:18:51.998Z,8.80
2023-05-11T03:21:21.519Z,8.80
2023-05-11T03:23:49.516Z,8.80
2023-05-11T03:26:18.879Z,8.80
2023-05-11T03:28:47.163Z,8.80
2023-05-11T03:31:14.233Z,8.70
2023-05-11T03:33:41.080Z,8.70
2023-05-11T03:36:10.618Z,8.70
2023-05-11T03:38:38.728Z,8.70
2023-05-11T03:41:05.970Z,8.70
2023-05-11T03:43:36.316Z,8.70
2023-05-11T03:46:05.064Z,8.70
2023-05-11T03:48:32.896Z,8.70
2023-05-11T03:51:00.295Z,8.70
2023-05-11T03:53:27.377Z,8.70
2023-05-11T03:55:54.902Z,8.70
2023-05-11T03:58:22.902Z,8.70
2023-05-11T04:00:50.173Z,8.70
2023-05-11T04:03:17.188Z,8.70
2023-05-11T04:05:44.165Z,8.70
2023-05-11T04:08:11.412Z,8.70
2023-05-11T04:10:38.434Z,8.70
2023-05-11T04:13:05.449Z,8.70
2023-05-11T04:15:32.309Z,8.80
2023-05-11T04:17:59.210Z,8.80
2023-05-11T04:20:26.222Z,8.80
2023-05-11T04:22:53.059Z,8.80
2023-05-11T04:25:20.092Z,8.80
2023-05-11T04:27:47.063Z,8.90
2023-05-11T04:30:14.132Z,8.80
2023-05-11T04:32:41.103Z,8.80
2023-05-11T04:35:08.387Z,8.80
2023-05-11T04:37:35.364Z,8.80
2023-05-11T04:40:02.168Z,8.80
2023-05-11T04:42:30.449Z,8.80
2023-05-11T04:44:57.262Z,8.80
2023-05-11T04:47:24.221Z,8.80
2023-05-11T04:49:52.011Z,8.80
2023-05-11T04:52:19.091Z,8.90
2023-05-11T04:54:45.927Z,8.90
2023-05-11T04:57:12.777Z,8.90
2023-05-11T04:59:39.667Z,8.90
2023-05-11T05:02:09.087Z,8.90
2023-05-11T05:04:36.570Z,8.90
2023-05-11T05:07:04.500Z,8.90
2023-05-11T05:09:31.384Z,8.90
2023-05-11T05:11:58.289Z,8.90
2023-05-11T05:14:25.122Z,8.90
2023-05-11T05:16:54.651Z,8.90
2023-05-11T05:19:21.574Z,8.90
2023-05-11T05:21:48.479Z,8.90
2023-05-11T05:24:15.515Z,9.00
2023-05-11T05:26:42.342Z,8.90
2023-05-11T05:29:09.402Z,8.90
2023-05-11T05:31:36.332Z,8.90
2023-05-11T05:34:03.183Z,9.00
2023-05-11T05:36:30.196Z,8.90
2023-05-11T05:38:57.202Z,8.90
2023-05-11T05:41:24.140Z,8.90
2023-05-11T05:43:51.775Z,9.00
2023-05-11T05:46:18.783Z,9.00
2023-05-11T05:48:45.813Z,9.00
2023-05-11T05:51:12.839Z,9.10
2023-05-11T05:53:39.617Z,9.10
2023-05-11T05:56:07.207Z,9.10
2023-05-11T05:58:34.067Z,9.10
2023-05-11T06:01:01.700Z,9.20
2023-05-11T06:03:29.703Z,9.30
2023-05-11T06:05:57.028Z,9.30
2023-05-11T06:08:24.060Z,9.30
2023-05-11T06:10:51.111Z,9.40
2023-05-11T06:13:18.057Z,9.40
2023-05-11T06:15:45.105Z,9.40
2023-05-11T06:18:12.074Z,9.30
2023-05-11T06:20:39.051Z,9.30
2023-05-11T06:23:06.105Z,9.40
2023-05-11T06:25:36.025Z,9.40
2023-05-11T06:28:03.097Z,9.40
2023-05-11T06:30:31.328Z,9.40
2023-05-11T06:32:58.335Z,9.50
2023-05-11T06:35:25.626Z,9.50
2023-05-11T06:37:52.614Z,9.50
2023-05-11T06:40:20.016Z,9.50
2023-05-11T06:42:47.106Z,9.40
2023-05-11T06:45:14.086Z,9.40
2023-05-11T06:47:41.717Z,9.40
2023-05-11T06:50:09.854Z,9.50
2023-05-11T06:52:36.666Z,9.50
2023-05-11T06:55:07.079Z,9.50
2023-05-11T06:57:33.871Z,9.50
2023-05-11T07:02:28.787Z,9.50
2023-05-11T07:04:55.870Z,9.50
2023-05-11T07:07:22.960Z,9.50
2023-05-11T07:09:49.907Z,9.50
2023-05-11T07:12:17.206Z,9.50
2023-05-11T07:14:44.065Z,9.60
2023-05-11T07:17:11.128Z,9.60
2023-05-11T07:19:38.244Z,9.60
2023-05-11T07:22:05.920Z,9.70
2023-05-11T07:24:33.032Z,9.70
2023-05-11T07:27:00.840Z,9.70
2023-05-11T07:29:27.815Z,9.70
2023-05-11T07:31:54.734Z,9.70
2023-05-11T07:34:21.597Z,9.80
2023-05-11T07:36:48.471Z,9.80
2023-05-11T07:39:17.149Z,9.80
2023-05-11T07:41:44.054Z,10.00
2023-05-11T07:44:11.405Z,10.00
2023-05-11T07:46:38.231Z,10.00
2023-05-11T07:49:15.797Z,10.00
2023-05-11T07:51:45.585Z,10.10
2023-05-11T07:54:12.493Z,10.10
2023-05-11T07:56:39.371Z,10.10
2023-05-11T07:59:06.177Z,10.10
2023-05-11T08:01:33.447Z,10.10
2023-05-11T08:04:00.956Z,10.10
2023-05-11T08:06:28.107Z,10.10
2023-05-11T08:08:54.972Z,10.10
2023-05-11T08:11:21.870Z,10.20
2023-05-11T08:13:48.815Z,10.20
2023-05-11T08:16:16.049Z,10.20
2023-05-11T08:18:46.759Z,10.30
2023-05-11T08:21:14.544Z,10.30
2023-05-11T08:23:42.933Z,10.30
2023-05-11T08:26:15.432Z,10.30
2023-05-11T08:28:42.402Z,10.30
2023-05-11T08:31:09.263Z,10.30
2023-05-11T08:33:38.711Z,10.30
2023-05-11T08:36:07.191Z,10.40
2023-05-11T08:38:36.780Z,10.50
2023-05-11T08:41:04.984Z,10.50
2023-05-11T08:43:36.112Z,10.40
2023-05-11T08:46:07.887Z,10.50
2023-05-11T08:48:35.082Z,10.50
2023-05-11T08:51:04.342Z,10.60
2023-05-11T08:53:31.561Z,10.70
2023-05-11T08:56:01.128Z,10.80
2023-05-11T08:58:28.267Z,10.80
2023-05-11T09:00:55.791Z,10.80
2023-05-11T09:03:23.125Z,10.90
2023-05-11T09:05:50.535Z,10.90
2023-05-11T09:08:24.176Z,10.90
2023-05-11T09:10:52.021Z,11.00
2023-05-11T09:13:19.169Z,11.00
2023-05-11T09:15:45.980Z,11.00
2023-05-11T09:18:13.522Z,11.00
2023-05-11T09:20:46.558Z,11.10
2023-05-11T09:23:17.588Z,11.10
2023-05-11T09:25:44.840Z,11.10
2023-05-11T09:28:24.835Z,11.10
2023-05-11T09:30:52.514Z,11.10
2023-05-11T09:33:26.179Z,11.10
2023-05-11T09:35:53.757Z,11.20
2023-05-11T09:38:20.798Z,11.20
2023-05-11T09:40:53.318Z,11.20
2023-05-11T09:43:25.204Z,11.20
2023-05-11T09:46:07.244Z,11.20
2023-05-11T09:48:35.325Z,11.30
2023-05-11T09:51:07.383Z,11.30
2023-05-11T09:53:43.552Z,11.30
2023-05-11T09:56:11.109Z,11.20
2023-05-11T09:59:14.086Z,11.10
2023-05-11T10:08:11.752Z,11.00
2023-05-11T10:10:53.329Z,11.10
2023-05-11T10:13:27.309Z,11.00
2023-05-11T10:17:04.121Z,11.00
2023-05-11T10:19:33.001Z,10.90
2023-05-11T10:22:05.423Z,10.80
2023-05-11T10:24:38.115Z,10.80
2023-05-11T10:27:09.073Z,10.80
2023-05-11T10:29:41.874Z,10.70
2023-05-11T10:32:16.280Z,10.80
2023-05-11T10:37:51.949Z,11.00
2023-05-11T10:40:19.115Z,11.10
2023-05-11T10:42:53.936Z,11.20
2023-05-11T10:45:52.190Z,11.30
2023-05-11T10:48:37.089Z,11.20
2023-05-11T10:51:25.374Z,11.30
2023-05-11T10:54:11.020Z,11.40
2023-05-11T10:56:57.440Z,11.40
2023-05-11T10:59:49.186Z,11.50
2023-05-11T11:02:18.685Z,11.50
2023-05-11T11:04:51.234Z,11.40
2023-05-11T11:07:19.910Z,11.50
2023-05-11T11:09:52.820Z,11.50
2023-05-11T11:12:21.254Z,11.50
2023-05-11T11:15:04.393Z,11.50
2023-05-11T11:17:32.978Z,11.60
2023-05-11T11:20:07.556Z,11.60
2023-05-11T11:22:38.722Z,11.70
2023-05-11T11:25:10.045Z,11.60
2023-05-11T11:27:46.178Z,11.60
2023-05-11T11:30:30.872Z,11.60
2023-05-11T11:33:10.405Z,11.50
2023-05-11T11:35:43.131Z,11.50
2023-05-11T11:38:11.567Z,11.50
2023-05-11T11:40:49.499Z,11.50
2023-05-11T11:43:19.670Z,11.50
2023-05-11T11:46:02.168Z,11.20
2023-05-11T11:48:32.211Z,11.10
2023-05-11T11:51:13.871Z,11.10
2023-05-11T11:53:44.657Z,10.90
2023-05-11T11:56:14.507Z,11.00
2023-05-11T11:58:58.581Z,11.00
2023-05-11T12:01:28.498Z,11.00
2023-05-11T12:04:04.706Z,10.90
2023-05-11T12:06:40.420Z,10.90
2023-05-11T12:09:08.591Z,11.00
2023-05-11T12:11:35.618Z,11.00
2023-05-11T12:14:03.078Z,11.00
2023-05-11T12:16:30.526Z,11.10
2023-05-11T12:19:01.729Z,11.20
2023-05-11T12:21:33.807Z,11.30
2023-05-11T12:24:03.069Z,11.30
2023-05-11T12:26:31.729Z,11.30
2023-05-11T12:29:12.826Z,11.30
2023-05-11T12:31:44.213Z,11.30
2023-05-11T12:34:18.972Z,11.30
2023-05-11T12:36:46.826Z,11.40
2023-05-11T12:39:20.994Z,11.50
2023-05-11T12:41:49.830Z,11.40
2023-05-11T12:44:17.943Z,11.40
2023-05-11T12:46:48.745Z,11.40
2023-05-11T12:49:25.884Z,11.50
2023-05-11T12:52:00.028Z,11.60
2023-05-11T12:54:38.271Z,11.50
2023-05-11T12:57:07.741Z,11.50
2023-05-11T12:59:41.013Z,11.50
2023-05-11T13:02:12.231Z,11.60
2023-05-11T13:04:40.953Z,11.60
2023-05-11T13:07:08.154Z,11.70
2023-05-11T13:09:35.125Z,11.70
2023-05-11T13:12:18.500Z,11.70
2023-05-11T13:14:47.822Z,11.90
2023-05-11T13:17:32.312Z,11.90
2023-05-11T13:20:18.026Z,11.90
2023-05-11T13:22:45.617Z,11.80
2023-05-11T13:25:14.029Z,11.90
2023-05-11T13:27:40.830Z,11.90
2023-05-11T13:30:08.492Z,11.80
2023-05-11T13:32:36.996Z,11.90
2023-05-11T13:35:04.746Z,11.90
2023-05-11T13:37:32.383Z,12.00
2023-05-11T13:40:00.829Z,12.00
2023-05-11T13:42:28.035Z,12.00
2023-05-11T13:44:54.966Z,11.80
2023-05-11T13:47:21.870Z,11.70
2023-05-11T13:49:49.070Z,11.70
2023-05-11T13:52:15.977Z,11.60
2023-05-11T13:54:42.728Z,11.60
2023-05-11T13:57:09.678Z,11.70
2023-05-11T13:59:36.480Z,11.80
2023-05-11T14:02:03.576Z,11.80
2023-05-11T14:04:30.808Z,11.90
2023-05-11T14:06:58.558Z,11.90
2023-05-11T14:09:25.407Z,11.90
2023-05-11T14:11:52.353Z,11.90
2023-05-11T14:14:19.190Z,11.90
2023-05-11T14:16:46.070Z,11.80
2023-05-11T14:19:13.008Z,11.80
2023-05-11T14:21:40.050Z,11.90
2023-05-11T14:24:12.064Z,12.00
2023-05-11T14:26:40.399Z,12.00
2023-05-11T14:29:07.621Z,12.00
2023-05-11T14:31:35.870Z,12.00
2023-05-11T14:34:03.904Z,11.90
2023-05-11T14:36:31.825Z,11.90
2023-05-11T14:38:58.722Z,11.80
2023-05-11T14:41:25.828Z,11.90
2023-05-11T14:43:53.676Z,11.80
2023-05-11T14:46:21.796Z,11.80
2023-05-11T14:48:48.901Z,11.80
2023-05-11T14:51:15.742Z,11.70
2023-05-11T14:53:42.594Z,11.80
2023-05-11T14:56:09.529Z,11.70
2023-05-11T14:58:36.471Z,11.70
2023-05-11T15:01:04.036Z,11.70
2023-05-11T15:03:31.278Z,11.70
2023-05-11T15:05:58.148Z,11.70
2023-05-11T15:08:30.107Z,11.70
2023-05-11T15:10:58.009Z,11.60
2023-05-11T15:13:25.088Z,11.80
2023-05-11T15:15:52.124Z,11.80
2023-05-11T15:18:19.287Z,11.70
2023-05-11T15:20:46.841Z,11.80
2023-05-11T15:23:16.968Z,11.80
2023-05-11T15:25:45.076Z,11.80
2023-05-11T15:28:12.438Z,11.70
2023-05-11T15:30:41.437Z,11.70
2023-05-11T15:33:10.069Z,11.70
2023-05-11T15:35:37.844Z,11.80
2023-05-11T15:38:04.910Z,11.80
2023-05-11T15:40:32.458Z,11.80
2023-05-11T15:42:59.389Z,11.70
2023-05-11T15:45:26.470Z,11.70
2023-05-11T15:47:54.291Z,11.60
2023-05-11T15:50:21.752Z,11.60
2023-05-11T15:52:48.948Z,11.60
2023-05-11T15:55:15.970Z,11.60
2023-05-11T15:57:42.772Z,11.60
2023-05-11T16:00:10.470Z,11.60
2023-05-11T16:02:37.575Z,11.50
2023-05-11T16:05:04.652Z,11.50
2023-05-11T16:07:31.569Z,11.50
2023-05-11T16:09:58.588Z,11.40
2023-05-11T16:12:26.092Z,11.40
2023-05-11T16:14:52.878Z,11.50
2023-05-11T16:17:19.780Z,11.50
2023-05-11T16:19:46.563Z,11.40
2023-05-11T16:22:13.335Z,11.40
2023-05-11T16:24:40.173Z,11.40
2023-05-11T16:27:07.021Z,11.40
2023-05-11T16:29:33.808Z,11.40
2023-05-11T16:32:00.907Z,11.30
2023-05-11T16:34:28.023Z,11.30
2023-05-11T16:36:56.669Z,11.30
2023-05-11T16:39:26.775Z,11.30
2023-05-11T16:41:53.541Z,11.30
2023-05-11T16:44:20.311Z,11.30
2023-05-11T16:46:47.822Z,11.20
2023-05-11T16:49:14.617Z,11.10
2023-05-11T16:51:41.638Z,11.10
2023-05-11T16:54:08.543Z,11.10
2023-05-11T16:56:35.282Z,11.10
2023-05-11T16:59:02.186Z,11.10
2023-05-11T17:01:29.127Z,11.10
2023-05-11T17:03:56.106Z,11.00
2023-05-11T17:06:24.033Z,11.00
2023-05-11T17:08:51.351Z,11.00
2023-05-11T17:11:18.154Z,11.00
2023-05-11T17:13:45.017Z,11.00
2023-05-11T17:16:11.947Z,11.00
2023-05-11T17:18:38.856Z,11.00
2023-05-11T17:21:05.965Z,11.00
2023-05-11T17:23:34.075Z,11.00
2023-05-11T17:26:10.295Z,11.00
2023-05-11T17:28:38.118Z,11.00
2023-05-11T17:31:19.638Z,11.00
2023-05-11T17:33:49.192Z,11.00
2023-05-11T17:36:18.748Z,10.90
2023-05-11T17:38:45.483Z,10.90
2023-05-11T17:41:12.532Z,10.80
2023-05-11T17:43:39.355Z,10.90
2023-05-11T17:46:09.182Z,10.90
2023-05-11T17:48:36.337Z,10.80
2023-05-11T17:51:03.216Z,10.70
2023-05-11T17:53:30.031Z,10.70
2023-05-11T17:56:00.319Z,10.70
2023-05-11T17:58:27.077Z,10.70
2023-05-11T18:00:53.905Z,10.60
2023-05-11T18:03:21.120Z,10.60
2023-05-11T18:05:49.240Z,10.60
2023-05-11T18:08:17.890Z,10.60
2023-05-11T18:10:47.263Z,10.60
2023-05-11T18:13:15.263Z,10.50
2023-05-11T18:15:44.376Z,10.60
2023-05-11T18:18:16.805Z,10.50
2023-05-11T18:20:46.354Z,10.50
2023-05-11T18:23:14.206Z,10.50
2023-05-11T18:25:41.183Z,10.50
2023-05-11T18:28:07.993Z,10.50
2023-05-11T18:30:35.757Z,10.50
2023-05-11T18:33:02.688Z,10.40
2023-05-11T18:35:30.122Z,10.40
2023-05-11T18:37:59.543Z,10.30
2023-05-11T18:40:27.321Z,10.40
2023-05-11T18:42:54.233Z,10.30
2023-05-11T18:45:21.052Z,10.30
2023-05-11T18:47:47.949Z,10.30
2023-05-11T18:50:14.769Z,10.30
2023-05-11T18:52:41.668Z,10.30
2023-05-11T18:55:09.058Z,10.30
2023-05-11T18:57:40.313Z,10.20
2023-05-11T19:00:07.935Z,10.20
2023-05-11T19:02:34.846Z,10.20
2023-05-11T19:05:01.782Z,10.20
2023-05-11T19:07:28.704Z,10.20
2023-05-11T19:09:56.430Z,10.20
2023-05-11T19:12:23.404Z,10.20
2023-05-11T19:14:50.203Z,10.20
2023-05-11T19:17:16.948Z,10.20
2023-05-11T19:19:43.855Z,10.10
2023-05-11T19:22:10.617Z,10.10
2023-05-11T19:24:37.388Z,10.00
2023-05-11T19:27:07.782Z,10.00
2023-05-11T19:29:35.450Z,10.00
2023-05-11T19:32:02.790Z,10.00
2023-05-11T19:34:29.732Z,10.00
2023-05-11T19:36:56.489Z,10.00
2023-05-11T19:39:24.510Z,10.00
2023-05-11T19:41:51.323Z,10.00
2023-05-11T19:44:18.801Z,10.00
2023-05-11T19:46:47.071Z,10.00
2023-05-11T19:49:15.334Z,10.00
2023-05-11T19:51:43.439Z,9.90
2023-05-11T19:54:11.464Z,9.90
2023-05-11T19:56:39.327Z,9.90
2023-05-11T19:59:06.152Z,10.00
2023-05-11T20:01:33.127Z,9.90
2023-05-11T20:04:00.111Z,9.90
2023-05-11T20:06:27.114Z,9.90
2023-05-11T20:08:54.333Z,9.90
2023-05-11T20:11:22.253Z,9.90
2023-05-11T20:13:49.278Z,9.90
2023-05-11T20:16:16.171Z,9.90
2023-05-11T20:18:43.154Z,9.90
2023-05-11T20:21:10.170Z,9.90
2023-05-11T20:23:37.715Z,9.90
2023-05-11T20:26:04.885Z,9.80
2023-05-11T20:28:32.085Z,9.80
2023-05-11T20:30:59.083Z,9.80
2023-05-11T20:35:59.107Z,9.80
2023-05-11T20:38:25.910Z,9.80
2023-05-11T20:40:57.979Z,9.80
2023-05-11T20:43:27.992Z,9.70
2023-05-11T20:45:55.154Z,9.80
2023-05-11T20:48:32.471Z,9.80
2023-05-11T20:51:06.301Z,9.70
2023-05-11T20:53:33.434Z,9.70
2023-05-11T20:56:03.402Z,9.80
2023-05-11T20:58:31.521Z,9.70
2023-05-11T21:00:58.629Z,9.70
2023-05-11T21:03:26.858Z,9.70
2023-05-11T21:05:56.335Z,9.70
2023-05-11T21:08:26.033Z,9.70
2023-05-11T21:10:53.227Z,9.70
2023-05-11T21:13:20.180Z,9.70
2023-05-11T21:15:46.931Z,9.60
2023-05-11T21:18:13.750Z,9.60
2023-05-11T21:20:43.572Z,9.60
2023-05-11T21:23:10.512Z,9.60
2023-05-11T21:25:39.785Z,9.60
2023-05-11T21:28:09.319Z,9.60
2023-05-11T21:30:36.100Z,9.60
2023-05-11T21:33:03.146Z,9.60
2023-05-11T21:35:29.908Z,9.60
2023-05-11T21:37:57.638Z,9.60
2023-05-11T21:40:24.393Z,9.60
2023-05-11T21:42:51.216Z,9.60
2023-05-11T21:45:19.871Z,9.50
2023-05-11T21:47:46.927Z,9.60
2023-05-11T21:50:13.945Z,9.60
2023-05-11T21:52:41.151Z,9.60
2023-05-11T21:55:08.415Z,9.60
2023-05-11T21:57:35.494Z,9.50
2023-05-11T22:00:02.411Z,9.60
2023-05-11T22:02:29.795Z,9.60
2023-05-11T22:04:56.768Z,9.60
2023-05-11T22:07:23.576Z,9.60
2023-05-11T22:09:50.861Z,9.60
2023-05-11T22:12:17.613Z,9.60
2023-05-11T22:22:20.109Z,9.50
2023-05-11T22:36:11.782Z,9.50
2023-05-11T22:38:39.036Z,9.50
2023-05-11T22:41:06.441Z,9.50
2023-05-11T22:43:34.131Z,9.50
2023-05-11T22:46:00.927Z,9.50
2023-05-11T22:48:27.808Z,9.50
2023-05-11T22:50:54.735Z,9.50
2023-05-11T22:53:22.999Z,9.50
2023-05-11T22:55:49.855Z,9.50
2023-05-11T22:58:17.177Z,9.50
2023-05-11T23:00:43.975Z,9.50
2023-05-11T23:03:10.994Z,9.50
2023-05-11T23:05:37.995Z,9.50
2023-05-11T23:08:04.811Z,9.50
2023-05-11T23:48:26.275Z,9.40
2023-05-11T23:55:14.734Z,9.40
2023-05-11T23:57:41.876Z,9.40
